Time;durP1;ratioP1;P1;durP2;ratioP2;P2;SDS_P1;SDS_P2;PMS_P1;PMS_P2;Temp;Humidity;BMP_temperature;BMP_pressure;BME280_temperature;BME280_humidity;BME280_pressure;Samples;Min_cycle;Max_cycle;Signal;HPM_P1;HPM_P2
2021/12/07 00:00:00;;;;;;;25.85;14.70;;;3.10;99.90;;;;;;4985004;28;20125;-70
2021/12/07 00:02:26;;;;;;;28.38;16.23;;;3.10;99.90;;;;;;4954060;28;20141;-70
2021/12/07 00:04:52;;;;;;;29.60;14.73;;;3.10;99.90;;;;;;4960160;28;20495;-70
2021/12/07 00:07:18;;;;;;;27.33;14.88;;;3.00;99.90;;;;;;4981319;28;20048;-70
2021/12/07 00:09:46;;;;;;;27.77;14.52;;;3.10;99.90;;;;;;4959620;28;20062;-70
2021/12/07 00:12:12;;;;;;;27.23;14.48;;;3.00;99.90;;;;;;4975786;28;20069;-70
2021/12/07 00:14:41;;;;;;;26.05;14.93;;;3.00;99.90;;;;;;4974483;28;20050;-70
2021/12/07 00:17:08;;;;;;;29.48;14.68;;;3.00;99.90;;;;;;4957166;28;20062;-70
2021/12/07 00:19:34;;;;;;;26.88;13.57;;;3.00;99.90;;;;;;4973628;28;20050;-70
2021/12/07 00:22:01;;;;;;;27.00;14.88;;;3.00;99.90;;;;;;4973328;28;20047;-71
2021/12/07 00:24:27;;;;;;;25.90;14.30;;;3.00;99.90;;;;;;4967034;28;20055;-71
2021/12/07 00:26:53;;;;;;;25.65;13.93;;;3.00;99.90;;;;;;4961835;28;20046;-70
2021/12/07 00:29:19;;;;;;;27.33;15.10;;;3.00;99.90;;;;;;4973678;28;20050;-71
2021/12/07 00:31:54;;;;;;;25.67;14.25;;;3.00;99.90;;;;;;4981119;28;20043;-71
2021/12/07 00:36:58;;;;;;;25.75;14.35;;;2.90;99.90;;;;;;4976497;28;20043;-71
2021/12/07 00:39:24;;;;;;;25.55;14.02;;;2.80;99.90;;;;;;4965816;28;20089;-71
2021/12/07 00:41:52;;;;;;;26.77;14.73;;;2.80;99.90;;;;;;4976216;28;20047;-71
2021/12/07 00:44:19;;;;;;;27.58;14.48;;;2.80;99.90;;;;;;4979887;28;20042;-71
2021/12/07 00:46:46;;;;;;;27.38;14.07;;;2.70;99.90;;;;;;4984370;28;20049;-71
2021/12/07 00:49:11;;;;;;;30.35;15.75;;;2.70;99.90;;;;;;4959169;28;20062;-71
2021/12/07 00:51:37;;;;;;;26.90;14.25;;;2.70;99.90;;;;;;4960811;28;20398;-71
2021/12/07 00:54:04;;;;;;;26.95;14.35;;;2.70;99.90;;;;;;4960263;28;20093;-71
2021/12/07 00:56:29;;;;;;;26.83;15.27;;;2.70;99.90;;;;;;4975954;28;20198;-71
2021/12/07 00:58:55;;;;;;;28.05;14.57;;;2.60;99.90;;;;;;4975089;28;20063;-71
2021/12/07 01:01:22;;;;;;;31.60;15.95;;;2.80;99.90;;;;;;4985998;28;20046;-71
2021/12/07 01:03:49;;;;;;;27.52;15.73;;;2.60;99.90;;;;;;4962567;28;20045;-71
2021/12/07 01:06:32;;;;;;;24.20;14.00;;;2.60;99.90;;;;;;4985495;28;20046;-71
2021/12/07 01:25:22;;;;;;;26.33;13.55;;;2.30;99.90;;;;;;4956320;28;20043;-71
2021/12/07 01:27:50;;;;;;;24.67;13.93;;;2.20;99.90;;;;;;4968889;28;20038;-71
2021/12/07 01:30:31;;;;;;;23.10;13.45;;;2.20;99.90;;;;;;4984575;28;20046;-71
2021/12/07 01:38:32;;;;;;;23.48;13.40;;;2.30;99.90;;;;;;4984942;28;20047;-70
2021/12/07 01:44:05;;;;;;;;;;;2.30;99.90;;;;;;4960066;28;20486;-70
2021/12/07 01:52:23;;;;;;;22.73;14.52;;;2.30;99.90;;;;;;4959432;28;20106;-70
2021/12/07 02:00:19;;;;;;;20.40;12.30;;;2.20;99.90;;;;;;4970325;28;20047;-70
2021/12/07 02:02:45;;;;;;;21.15;12.30;;;2.20;99.90;;;;;;4966282;28;20122;-70
2021/12/07 02:05:11;;;;;;;23.48;13.40;;;2.10;99.90;;;;;;4987222;28;20066;-70
2021/12/07 02:07:37;;;;;;;24.27;13.40;;;2.10;99.90;;;;;;4988814;28;20110;-70
2021/12/07 02:10:10;;;;;;;22.98;13.13;;;2.10;99.90;;;;;;4964624;28;20046;-70
2021/12/07 02:12:43;;;;;;;21.33;12.20;;;2.10;99.90;;;;;;4960589;28;20498;-70
2021/12/07 02:15:12;;;;;;;22.65;12.73;;;2.00;99.90;;;;;;4958385;28;20074;-70
2021/12/07 02:17:37;;;;;;;22.50;12.20;;;2.00;99.90;;;;;;4959588;28;20441;-70
2021/12/07 02:20:04;;;;;;;22.42;13.95;;;2.00;99.90;;;;;;4968791;28;20046;-70
2021/12/07 02:22:30;;;;;;;21.02;12.90;;;2.00;99.90;;;;;;4974867;28;20135;-70
2021/12/07 02:24:55;;;;;;;22.13;12.77;;;2.00;99.90;;;;;;4960325;28;20126;-70
2021/12/07 02:27:21;;;;;;;21.02;11.95;;;2.00;99.90;;;;;;4964284;28;20061;-70
2021/12/07 02:29:47;;;;;;;20.52;12.80;;;2.00;99.90;;;;;;4958374;28;20076;-69
2021/12/07 02:32:13;;;;;;;21.30;12.93;;;2.00;99.90;;;;;;4986214;28;20038;-69
2021/12/07 02:34:43;;;;;;;20.67;12.35;;;1.90;99.90;;;;;;4965499;28;20054;-70
2021/12/07 02:37:09;;;;;;;21.10;12.35;;;1.90;99.90;;;;;;4962491;28;20063;-70
2021/12/07 02:39:37;;;;;;;18.85;11.80;;;1.90;99.90;;;;;;4968514;28;20054;-69
2021/12/07 02:42:04;;;;;;;19.17;11.93;;;1.90;99.90;;;;;;4962583;28;20089;-70
2021/12/07 02:44:30;;;;;;;19.35;11.85;;;1.90;99.90;;;;;;4976842;28;20126;-70
2021/12/07 02:46:56;;;;;;;19.98;12.25;;;2.00;99.90;;;;;;4967115;28;20049;-70
2021/12/07 02:49:22;;;;;;;19.67;11.75;;;1.90;99.90;;;;;;4976834;28;20403;-70
2021/12/07 02:51:47;;;;;;;18.23;11.13;;;1.90;99.90;;;;;;4986699;28;20043;-69
2021/12/07 02:54:13;;;;;;;19.30;11.57;;;1.90;99.90;;;;;;4956841;28;20062;-70
2021/12/07 02:56:39;;;;;;;19.83;11.93;;;1.90;99.90;;;;;;4962400;28;20450;-70
2021/12/07 02:59:05;;;;;;;18.65;12.23;;;1.90;99.90;;;;;;4969561;28;20058;-69
2021/12/07 03:01:35;;;;;;;20.13;11.85;;;1.90;99.90;;;;;;4974814;28;20042;-69
2021/12/07 03:04:08;;;;;;;18.85;11.43;;;1.90;99.90;;;;;;4956796;28;20100;-70
2021/12/07 03:06:56;;;;;;;21.08;12.30;;;1.90;99.90;;;;;;4968418;28;20596;-69
2021/12/07 03:28:24;;;;;;;24.08;13.88;;;1.90;99.90;;;;;;4958564;28;20039;-70
2021/12/07 03:30:50;;;;;;;23.50;13.52;;;1.90;99.90;;;;;;4957331;28;20057;-70
2021/12/07 03:33:15;;;;;;;23.90;13.85;;;1.90;99.90;;;;;;4959157;28;20092;-70
2021/12/07 03:35:41;;;;;;;24.55;14.32;;;1.90;99.90;;;;;;4974455;28;20046;-70
2021/12/07 03:38:08;;;;;;;24.30;14.73;;;1.90;99.90;;;;;;4983940;28;20050;-69
2021/12/07 03:40:34;;;;;;;24.35;14.20;;;1.90;99.90;;;;;;4973436;28;20047;-70
2021/12/07 03:43:01;;;;;;;22.00;13.32;;;1.90;99.90;;;;;;4973517;28;20042;-69
2021/12/07 03:45:26;;;;;;;24.40;14.77;;;1.90;99.90;;;;;;4980865;28;20406;-69
2021/12/07 03:47:53;;;;;;;25.80;14.65;;;1.90;99.90;;;;;;4958984;28;20042;-69
2021/12/07 03:50:22;;;;;;;23.23;14.63;;;1.80;99.90;;;;;;4981379;28;20141;-70
2021/12/07 03:52:49;;;;;;;25.45;15.07;;;1.80;99.90;;;;;;4962923;28;20043;-70
2021/12/07 03:55:15;;;;;;;27.48;14.38;;;1.80;99.90;;;;;;4975332;28;20045;-70
2021/12/07 03:57:41;;;;;;;24.58;14.38;;;1.80;99.90;;;;;;4958765;28;20407;-70
2021/12/07 04:00:10;;;;;;;24.65;14.23;;;1.80;99.90;;;;;;4974037;28;20460;-70
2021/12/07 04:02:39;;;;;;;26.15;14.23;;;1.80;99.90;;;;;;4978333;28;20042;-70
2021/12/07 04:05:13;;;;;;;25.08;15.50;;;1.80;99.90;;;;;;4971369;28;20177;-70
2021/12/07 04:07:40;;;;;;;26.02;14.82;;;1.80;99.90;;;;;;4966718;28;20561;-70
2021/12/07 04:10:08;;;;;;;26.35;14.57;;;1.80;99.90;;;;;;4966335;28;20051;-70
2021/12/07 04:12:34;;;;;;;24.95;13.50;;;1.70;99.90;;;;;;4971942;28;20664;-69
2021/12/07 04:14:59;;;;;;;25.52;14.63;;;1.80;99.90;;;;;;4979575;28;20057;-69
2021/12/07 04:17:25;;;;;;;24.45;14.02;;;1.70;99.90;;;;;;4970732;28;20386;-69
2021/12/07 04:19:51;;;;;;;25.75;15.10;;;1.70;99.90;;;;;;4970604;28;20050;-69
2021/12/07 04:22:17;;;;;;;26.60;15.00;;;1.80;99.90;;;;;;4964822;28;20128;-70
2021/12/07 04:24:43;;;;;;;26.92;15.32;;;1.80;99.90;;;;;;4966538;28;20137;-69
2021/12/07 04:27:08;;;;;;;23.40;13.10;;;1.80;99.90;;;;;;4977669;28;20502;-70
2021/12/07 04:29:34;;;;;;;26.30;14.40;;;1.80;99.90;;;;;;4956291;28;20043;-70
2021/12/07 04:32:00;;;;;;;24.08;13.48;;;1.80;99.90;;;;;;4972838;28;20410;-69
2021/12/07 04:34:25;;;;;;;22.45;12.63;;;1.80;99.90;;;;;;4961427;28;20062;-70
2021/12/07 04:36:51;;;;;;;24.10;13.27;;;1.70;99.90;;;;;;4983689;28;20050;-70
2021/12/07 04:39:17;;;;;;;26.70;13.70;;;1.80;99.90;;;;;;4967582;28;20057;-69
2021/12/07 04:41:45;;;;;;;26.95;13.82;;;1.80;99.90;;;;;;4980443;28;20483;-70
2021/12/07 04:44:11;;;;;;;25.02;13.13;;;1.80;99.90;;;;;;4973504;28;20088;-69
2021/12/07 04:46:45;;;;;;;21.65;11.73;;;1.80;99.90;;;;;;4964440;28;20509;-70
2021/12/07 04:49:48;;;;;;;23.33;12.93;;;1.80;99.90;;;;;;4958584;28;20515;-69
2021/12/07 04:57:45;;;;;;;22.33;13.43;;;1.70;99.90;;;;;;4975762;28;20050;-70
2021/12/07 05:00:16;;;;;;;23.83;12.95;;;1.70;99.90;;;;;;4958677;28;20491;-70
2021/12/07 05:02:45;;;;;;;25.73;12.45;;;1.70;99.90;;;;;;4956879;28;20051;-70
2021/12/07 05:05:14;;;;;;;22.10;11.93;;;1.70;99.90;;;;;;4974609;28;20100;-70
2021/12/07 05:07:46;;;;;;;24.88;13.10;;;1.70;99.90;;;;;;4969162;28;20388;-70
2021/12/07 05:10:39;;;;;;;22.73;11.75;;;1.70;99.90;;;;;;4968025;28;20064;-71
2021/12/07 05:15:57;;;;;;;20.23;12.23;;;1.70;99.90;;;;;;4963036;28;20082;-71
2021/12/07 05:39:42;;;;;;;20.08;11.10;;;1.70;99.90;;;;;;4982313;28;20055;-71
2021/12/07 05:42:08;;;;;;;19.58;10.93;;;1.70;99.90;;;;;;4987641;28;20042;-71
2021/12/07 05:44:33;;;;;;;23.10;10.80;;;1.70;99.90;;;;;;4982361;28;20414;-71
2021/12/07 05:46:59;;;;;;;20.48;10.10;;;1.80;99.90;;;;;;4967705;28;20506;-71
2021/12/07 05:49:25;;;;;;;22.10;10.93;;;1.80;99.90;;;;;;4975491;28;20047;-70
2021/12/07 05:51:51;;;;;;;20.20;10.35;;;1.80;99.90;;;;;;4962877;28;20471;-70
2021/12/07 05:54:16;;;;;;;19.63;10.07;;;1.80;99.90;;;;;;4981561;28;20089;-71
2021/12/07 05:56:42;;;;;;;21.58;10.38;;;1.70;99.90;;;;;;4965764;28;20050;-70
2021/12/07 05:59:08;;;;;;;23.73;10.32;;;1.80;99.90;;;;;;4983114;28;20450;-71
2021/12/07 06:01:33;;;;;;;18.08;9.65;;;1.70;99.90;;;;;;4980868;28;20051;-71
2021/12/07 06:03:59;;;;;;;20.75;10.45;;;1.70;99.90;;;;;;4978245;28;20042;-70
2021/12/07 06:06:25;;;;;;;20.35;11.23;;;1.70;99.90;;;;;;4978613;28;20058;-71
2021/12/07 06:08:50;;;;;;;18.17;10.32;;;1.70;99.90;;;;;;4959269;28;20051;-71
2021/12/07 06:11:18;;;;;;;21.17;10.75;;;1.70;99.90;;;;;;4975757;28;20691;-71
2021/12/07 06:13:43;;;;;;;19.30;10.77;;;1.70;99.90;;;;;;4963356;28;20089;-72
2021/12/07 06:16:09;;;;;;;16.30;8.55;;;1.70;99.90;;;;;;4965805;28;20086;-72
2021/12/07 06:18:36;;;;;;;19.73;10.82;;;1.80;99.90;;;;;;4965879;28;20046;-71
2021/12/07 06:21:03;;;;;;;19.02;10.13;;;1.80;99.90;;;;;;4981569;28;20050;-71
2021/12/07 06:23:28;;;;;;;19.35;10.35;;;1.80;99.90;;;;;;4960595;28;20723;-72
2021/12/07 06:25:56;;;;;;;17.23;9.25;;;1.80;99.90;;;;;;4958736;28;20056;-71
2021/12/07 06:28:21;;;;;;;18.13;9.55;;;1.80;99.90;;;;;;4968325;28;20078;-71
2021/12/07 06:30:48;;;;;;;23.15;10.10;;;1.80;99.90;;;;;;4963348;28;20275;-71
2021/12/07 06:33:16;;;;;;;18.48;9.45;;;1.80;99.90;;;;;;4979900;28;20054;-71
2021/12/07 06:35:42;;;;;;;16.52;9.43;;;1.80;99.90;;;;;;4973205;28;20050;-71
2021/12/07 06:38:08;;;;;;;20.35;9.57;;;1.80;99.90;;;;;;4978289;28;20466;-71
2021/12/07 06:40:33;;;;;;;18.15;9.55;;;1.70;99.90;;;;;;4970181;28;20821;-71
2021/12/07 06:43:00;;;;;;;19.80;9.45;;;1.70;99.90;;;;;;4976215;28;20066;-70
2021/12/07 06:45:28;;;;;;;19.02;9.98;;;1.80;99.90;;;;;;4962508;28;20097;-71
2021/12/07 06:47:55;;;;;;;18.85;9.10;;;1.80;99.90;;;;;;4971120;28;20065;-71
2021/12/07 06:50:21;;;;;;;20.00;8.90;;;1.80;99.90;;;;;;4960548;28;20042;-71
2021/12/07 06:52:47;;;;;;;20.23;9.60;;;1.70;99.90;;;;;;4955609;28;20049;-71
2021/12/07 06:55:13;;;;;;;19.45;9.88;;;1.70;99.90;;;;;;4977879;28;20454;-70
2021/12/07 06:57:38;;;;;;;23.20;8.70;;;1.70;99.90;;;;;;4976849;28;20457;-72
2021/12/07 07:00:07;;;;;;;19.02;9.30;;;1.70;99.90;;;;;;4965794;28;20076;-72
2021/12/07 07:02:32;;;;;;;19.90;8.95;;;1.70;99.90;;;;;;4976782;28;20487;-73
2021/12/07 07:04:58;;;;;;;18.75;9.05;;;1.70;99.90;;;;;;4980782;28;20085;-72
2021/12/07 07:07:24;;;;;;;19.25;8.70;;;1.90;99.90;;;;;;4985207;28;20406;-72
2021/12/07 07:09:51;;;;;;;18.52;8.63;;;1.70;99.90;;;;;;4981610;28;20067;-73
2021/12/07 07:12:17;;;;;;;17.27;8.65;;;1.70;99.90;;;;;;4962830;28;20061;-75
2021/12/07 07:14:43;;;;;;;19.48;8.65;;;1.70;99.90;;;;;;4966587;28;20414;-75
2021/12/07 07:17:12;;;;;;;16.95;8.60;;;1.70;99.90;;;;;;4964042;28;20557;-76
2021/12/07 07:19:38;;;;;;;18.55;8.57;;;1.70;99.90;;;;;;4982555;28;20050;-74
2021/12/07 07:22:03;;;;;;;17.65;9.27;;;1.70;99.90;;;;;;4980185;28;20049;-74
2021/12/07 07:24:30;;;;;;;18.65;8.38;;;1.70;99.90;;;;;;4957329;28;20074;-73
2021/12/07 07:26:57;;;;;;;17.52;8.93;;;1.80;99.90;;;;;;4968977;28;20042;-73
2021/12/07 07:29:22;;;;;;;19.85;9.82;;;1.70;99.90;;;;;;4964861;28;20069;-74
2021/12/07 07:31:48;;;;;;;20.85;10.73;;;1.70;99.90;;;;;;4954969;28;20808;-73
2021/12/07 07:34:13;;;;;;;18.55;8.90;;;1.70;99.90;;;;;;4953807;28;20065;-73
2021/12/07 07:36:39;;;;;;;16.08;8.32;;;1.80;99.90;;;;;;4958194;28;20482;-73
2021/12/07 07:39:05;;;;;;;23.15;12.15;;;1.80;99.90;;;;;;4986255;28;20438;-73
2021/12/07 07:41:31;;;;;;;19.73;10.32;;;1.80;99.90;;;;;;4957107;28;20094;-74
2021/12/07 07:43:56;;;;;;;13.73;8.00;;;1.80;99.90;;;;;;4975546;28;20078;-74
2021/12/07 07:46:22;;;;;;;19.85;9.27;;;1.80;99.90;;;;;;4969004;28;20060;-73
2021/12/07 07:48:47;;;;;;;18.35;8.57;;;1.70;99.90;;;;;;4980572;28;20073;-73
2021/12/07 07:51:14;;;;;;;18.58;8.80;;;1.70;99.90;;;;;;4972074;28;20455;-73
2021/12/07 07:53:40;;;;;;;16.70;9.20;;;1.70;99.90;;;;;;4978190;28;20646;-73
2021/12/07 07:56:06;;;;;;;21.65;8.82;;;1.70;99.90;;;;;;4951088;28;20053;-73
2021/12/07 07:58:32;;;;;;;17.75;8.95;;;1.70;99.90;;;;;;4948703;28;20061;-73
2021/12/07 08:00:57;;;;;;;19.42;9.65;;;1.70;99.90;;;;;;4969675;28;20050;-73
2021/12/07 08:03:23;;;;;;;18.17;9.27;;;1.70;99.90;;;;;;4957021;28;20133;-73
2021/12/07 08:05:49;;;;;;;19.80;9.43;;;1.70;99.90;;;;;;4955479;28;20113;-73
2021/12/07 08:08:15;;;;;;;21.40;8.98;;;1.70;99.90;;;;;;4969202;28;20062;-73
2021/12/07 08:10:41;;;;;;;17.67;8.68;;;1.70;99.90;;;;;;4956970;28;20121;-73
2021/12/07 08:13:08;;;;;;;21.52;9.13;;;1.70;99.90;;;;;;4973918;28;20171;-74
2021/12/07 08:15:39;;;;;;;23.25;10.95;;;1.70;99.90;;;;;;4956500;28;20419;-73
2021/12/07 08:18:06;;;;;;;23.33;12.15;;;1.70;99.90;;;;;;4949764;28;20103;-73
2021/12/07 08:20:32;;;;;;;19.73;10.63;;;1.70;99.90;;;;;;4957290;28;20508;-74
2021/12/07 08:22:58;;;;;;;22.70;10.32;;;1.70;99.90;;;;;;4953955;28;20059;-73
2021/12/07 08:25:24;;;;;;;26.58;9.40;;;1.70;99.90;;;;;;4956380;28;20054;-73
2021/12/07 08:27:50;;;;;;;22.05;9.95;;;1.70;99.90;;;;;;4964429;28;20070;-74
2021/12/07 08:30:16;;;;;;;21.55;9.77;;;1.80;99.90;;;;;;4975251;28;20455;-73
2021/12/07 08:32:45;;;;;;;27.58;10.27;;;1.80;99.90;;;;;;4956998;28;20050;-73
2021/12/07 08:35:16;;;;;;;23.60;10.05;;;1.90;99.90;;;;;;4972672;28;20907;-72
2021/12/07 08:37:44;;;;;;;22.33;9.40;;;1.70;99.90;;;;;;4949922;28;20464;-72
2021/12/07 08:40:11;;;;;;;30.30;12.20;;;1.80;99.90;;;;;;4973697;28;20518;-72
2021/12/07 08:42:37;;;;;;;35.33;17.33;;;1.80;99.90;;;;;;4972235;28;20196;-72
2021/12/07 08:45:07;;;;;;;25.55;11.45;;;1.80;99.90;;;;;;4973920;28;20054;-72
2021/12/07 08:47:34;;;;;;;27.75;12.93;;;1.80;99.90;;;;;;4953958;28;20139;-72
2021/12/07 08:50:00;;;;;;;28.40;14.27;;;1.80;99.90;;;;;;4980299;28;20069;-72
2021/12/07 08:52:26;;;;;;;24.17;12.32;;;1.80;99.90;;;;;;4963125;28;20034;-72
2021/12/07 09:00:06;;;;;;;20.92;9.45;;;1.90;99.90;;;;;;4978234;28;20090;-73
2021/12/07 09:02:33;;;;;;;22.25;9.82;;;1.90;99.90;;;;;;4978244;28;20532;-73
2021/12/07 09:04:59;;;;;;;23.55;8.88;;;1.90;99.90;;;;;;4962544;28;20054;-73
2021/12/07 09:07:25;;;;;;;23.27;10.20;;;2.00;99.90;;;;;;4952557;28;20043;-72
2021/12/07 09:09:51;;;;;;;29.05;11.05;;;1.90;99.90;;;;;;4960096;28;20371;-71
2021/12/07 09:12:19;;;;;;;25.27;10.30;;;2.00;99.90;;;;;;4977666;28;20157;-72
2021/12/07 09:14:46;;;;;;;23.98;9.52;;;2.00;99.90;;;;;;4960032;28;20141;-71
2021/12/07 09:17:13;;;;;;;20.65;9.85;;;2.00;99.90;;;;;;4956463;28;20078;-71
2021/12/07 09:19:39;;;;;;;20.48;10.07;;;2.10;99.90;;;;;;4960949;28;20050;-70
2021/12/07 09:22:06;;;;;;;27.92;12.18;;;2.10;99.90;;;;;;4979868;28;20058;-71
2021/12/07 09:24:33;;;;;;;27.10;11.48;;;2.10;99.90;;;;;;4977842;28;20065;-70
2021/12/07 09:26:59;;;;;;;22.83;9.88;;;2.10;99.90;;;;;;4954369;28;20046;-70
2021/12/07 09:29:25;;;;;;;23.25;10.45;;;2.10;99.90;;;;;;4963538;28;20051;-70
2021/12/07 09:31:51;;;;;;;24.48;10.75;;;2.20;99.90;;;;;;4978896;28;20139;-70
2021/12/07 09:34:17;;;;;;;28.85;9.95;;;2.20;99.90;;;;;;4976369;28;20126;-70
2021/12/07 09:36:43;;;;;;;19.80;9.23;;;2.20;99.90;;;;;;4974234;28;20133;-70
2021/12/07 09:39:12;;;;;;;24.45;11.82;;;2.30;99.90;;;;;;4979375;28;20728;-70
2021/12/07 09:41:38;;;;;;;27.65;12.48;;;2.30;99.90;;;;;;4980697;28;20054;-70
2021/12/07 09:44:05;;;;;;;26.50;10.00;;;2.30;99.90;;;;;;4958623;28;21373;-70
2021/12/07 09:46:31;;;;;;;26.33;10.35;;;2.40;99.90;;;;;;4972297;28;20046;-70
2021/12/07 09:49:00;;;;;;;23.13;9.95;;;2.40;99.90;;;;;;4978213;28;20046;-71
2021/12/07 09:51:29;;;;;;;21.95;9.25;;;2.40;99.90;;;;;;4961286;28;20058;-70
2021/12/07 09:53:56;;;;;;;25.75;8.45;;;2.50;99.90;;;;;;4961800;28;20093;-70
2021/12/07 09:56:23;;;;;;;21.10;9.68;;;2.50;99.90;;;;;;4953863;28;20493;-71
2021/12/07 09:58:51;;;;;;;28.75;10.70;;;2.50;99.90;;;;;;4978129;28;20046;-71
2021/12/07 10:01:17;;;;;;;21.45;9.40;;;2.60;99.90;;;;;;4976464;28;20418;-71
2021/12/07 10:03:43;;;;;;;29.98;9.82;;;2.60;99.90;;;;;;4972418;28;20077;-70
2021/12/07 10:06:09;;;;;;;24.52;9.13;;;2.70;99.90;;;;;;4977346;28;20165;-71
2021/12/07 10:08:36;;;;;;;25.20;10.00;;;2.70;99.90;;;;;;4982837;28;20129;-71
2021/12/07 10:11:05;;;;;;;25.65;8.70;;;2.70;99.90;;;;;;4961016;28;20051;-71
2021/12/07 10:13:31;;;;;;;22.08;8.40;;;2.80;99.90;;;;;;4956130;28;20046;-71
2021/12/07 10:16:00;;;;;;;28.02;8.70;;;2.90;99.90;;;;;;4956251;28;20054;-71
2021/12/07 10:18:28;;;;;;;19.30;7.72;;;3.00;99.90;;;;;;4957494;28;20418;-71
2021/12/07 10:20:58;;;;;;;22.23;9.27;;;3.10;99.90;;;;;;4971867;28;20401;-71
2021/12/07 10:23:26;;;;;;;25.25;9.70;;;3.30;99.90;;;;;;4961594;28;20061;-72
2021/12/07 10:26:17;;;;;;;23.35;8.27;;;3.40;99.90;;;;;;4956564;28;20140;-72
2021/12/07 10:28:54;;;;;;;17.25;7.07;;;3.40;99.90;;;;;;4959643;28;20130;-71
2021/12/07 10:31:25;;;;;;;25.98;7.53;;;3.50;99.90;;;;;;4979992;28;20050;-71
2021/12/07 10:34:05;;;;;;;18.00;6.55;;;3.60;99.90;;;;;;4958026;28;20046;-71
2021/12/07 10:36:44;;;;;;;16.77;6.53;;;3.60;99.90;;;;;;4953804;28;20100;-72
2021/12/07 10:39:20;;;;;;;18.13;7.18;;;3.70;99.90;;;;;;4960380;28;20077;-71
2021/12/07 10:41:53;;;;;;;19.90;7.32;;;3.70;99.90;;;;;;4960935;28;20050;-71
2021/12/07 10:44:44;;;;;;;23.13;7.70;;;3.70;99.90;;;;;;4974860;28;20129;-70
2021/12/07 10:47:12;;;;;;;15.55;6.32;;;3.80;99.90;;;;;;4968575;28;20204;-70
2021/12/07 10:49:51;;;;;;;19.08;6.28;;;3.90;99.90;;;;;;4976712;28;20188;-72
2021/12/07 10:52:33;;;;;;;16.40;6.40;;;3.90;99.90;;;;;;4977948;28;20050;-72
2021/12/07 10:55:20;;;;;;;17.95;5.85;;;4.00;99.90;;;;;;4957568;28;20082;-72
2021/12/07 10:58:03;;;;;;;17.65;6.28;;;4.10;99.90;;;;;;4954545;28;20148;-72
2021/12/07 11:00:43;;;;;;;14.95;5.72;;;4.10;99.90;;;;;;4975798;28;20050;-72
2021/12/07 11:03:17;;;;;;;13.40;6.20;;;4.20;99.90;;;;;;4960462;28;20058;-72
2021/12/07 11:05:46;;;;;;;15.70;5.88;;;4.30;99.90;;;;;;4977450;28;20050;-71
2021/12/07 11:08:14;;;;;;;16.85;6.38;;;4.30;99.90;;;;;;4953423;28;20062;-72
2021/12/07 11:10:45;;;;;;;16.33;6.70;;;4.40;99.90;;;;;;4974556;28;20108;-71
2021/12/07 11:13:18;;;;;;;16.27;5.90;;;4.40;99.90;;;;;;4976685;28;20058;-72
2021/12/07 11:15:50;;;;;;;20.88;5.57;;;4.50;99.90;;;;;;4961694;28;20058;-71
2021/12/07 11:18:20;;;;;;;16.75;5.75;;;4.60;99.90;;;;;;4953799;28;20160;-72
2021/12/07 11:20:45;;;;;;;16.30;5.47;;;4.70;99.90;;;;;;4979689;28;20054;-72
2021/12/07 11:23:14;;;;;;;12.23;4.95;;;4.80;99.90;;;;;;4960509;28;20411;-72
2021/12/07 11:29:39;;;;;;;14.43;6.00;;;4.80;99.90;;;;;;4959158;28;20479;-72
2021/12/07 11:31:49;;;;;;;17.23;4.80;;;5.00;99.90;;;;;;4978072;28;20050;-72
2021/12/07 11:34:23;;;;;;;13.95;5.15;;;5.10;99.90;;;;;;4954297;28;20442;-72
2021/12/07 11:36:58;;;;;;;14.00;4.40;;;5.20;99.90;;;;;;4971628;28;20050;-72
2021/12/07 11:39:25;;;;;;;17.55;5.28;;;5.20;99.90;;;;;;4958636;28;20064;-72
2021/12/07 11:42:12;;;;;;;12.82;5.05;;;5.30;99.90;;;;;;4960822;28;20093;-72
2021/12/07 11:45:01;;;;;;;18.75;4.07;;;5.40;99.90;;;;;;4976367;28;20077;-72
2021/12/07 11:47:39;;;;;;;14.52;4.60;;;5.50;99.90;;;;;;4973509;28;20038;-72
2021/12/07 11:50:23;;;;;;;15.82;5.13;;;5.60;99.90;;;;;;4973583;28;20058;-73
2021/12/07 11:52:56;;;;;;;17.33;4.78;;;5.60;99.90;;;;;;4958992;28;20516;-73
2021/12/07 11:55:23;;;;;;;16.33;5.53;;;5.60;99.90;;;;;;4957589;28;20058;-73
2021/12/07 11:57:49;;;;;;;18.10;4.55;;;5.70;99.90;;;;;;4970472;28;20054;-73
2021/12/07 12:00:20;;;;;;;14.43;4.22;;;5.70;99.90;;;;;;4955896;28;20046;-73
2021/12/07 12:02:46;;;;;;;22.00;5.32;;;5.70;99.90;;;;;;4960353;28;20085;-73
2021/12/07 12:05:12;;;;;;;11.40;4.57;;;5.70;99.90;;;;;;4974465;28;20065;-73
2021/12/07 12:07:41;;;;;;;14.13;4.75;;;5.80;99.90;;;;;;4968189;28;20486;-73
2021/12/07 12:10:08;;;;;;;14.20;3.92;;;5.80;99.90;;;;;;4958760;28;20049;-71
2021/12/07 12:12:53;;;;;;;10.70;4.63;;;5.80;99.90;;;;;;4972320;28;20593;-74
2021/12/07 12:15:46;;;;;;;13.05;4.35;;;5.80;99.90;;;;;;4956901;28;20063;-74
2021/12/07 12:18:44;;;;;;;15.27;4.28;;;5.90;99.90;;;;;;4970631;28;20997;-74
2021/12/07 12:21:32;;;;;;;13.15;4.32;;;5.90;99.90;;;;;;4961849;28;20494;-74
2021/12/07 12:24:31;;;;;;;13.25;4.60;;;5.90;99.90;;;;;;4961240;28;20042;-74
2021/12/07 12:27:11;;;;;;;13.65;4.70;;;5.90;99.90;;;;;;4957402;28;20138;-74
2021/12/07 12:29:39;;;;;;;15.75;4.20;;;5.90;99.90;;;;;;4964499;28;20457;-74
2021/12/07 12:32:06;;;;;;;9.60;4.18;;;5.90;99.90;;;;;;4963084;28;20039;-74
2021/12/07 12:34:34;;;;;;;15.07;4.88;;;5.90;99.90;;;;;;4975478;28;20125;-74
2021/12/07 12:37:14;;;;;;;12.30;3.70;;;5.90;99.90;;;;;;4950848;28;20059;-74
2021/12/07 12:40:00;;;;;;;15.00;3.63;;;5.90;99.90;;;;;;4980306;28;20058;-72
2021/12/07 12:42:37;;;;;;;10.43;4.45;;;5.90;99.90;;;;;;4978293;28;20074;-72
2021/12/07 12:45:27;;;;;;;15.73;4.40;;;5.80;99.90;;;;;;4978513;28;23875;-72
2021/12/07 12:47:56;;;;;;;15.85;4.40;;;5.80;99.90;;;;;;4974632;28;20046;-72
2021/12/07 12:50:49;;;;;;;11.25;4.50;;;5.80;99.90;;;;;;4962881;28;20387;-72
2021/12/07 12:53:19;;;;;;;17.65;4.32;;;5.80;99.90;;;;;;4960867;28;20066;-72
2021/12/07 12:55:52;;;;;;;12.75;4.18;;;5.70;99.90;;;;;;4981117;28;20050;-71
2021/12/07 12:58:34;;;;;;;13.73;4.65;;;5.70;99.90;;;;;;4958427;28;20054;-72
2021/12/07 13:01:18;;;;;;;16.70;4.90;;;5.60;99.90;;;;;;4982791;28;20907;-72
2021/12/07 13:03:46;;;;;;;13.73;3.63;;;5.60;99.90;;;;;;4974312;28;20043;-72
2021/12/07 13:06:18;;;;;;;10.82;4.03;;;5.60;99.90;;;;;;4979650;28;20050;-72
2021/12/07 13:09:18;;;;;;;16.60;5.25;;;5.60;99.90;;;;;;4981883;28;20046;-72
2021/12/07 13:12:02;;;;;;;16.40;4.78;;;5.60;99.90;;;;;;4970205;28;20061;-72
2021/12/07 13:14:39;;;;;;;16.80;4.30;;;5.60;99.90;;;;;;4980331;28;20050;-71
2021/12/07 13:17:17;;;;;;;15.73;4.43;;;5.60;99.90;;;;;;4985816;28;20490;-71
2021/12/07 13:20:04;;;;;;;11.38;4.22;;;5.60;99.90;;;;;;4971657;28;20077;-72
2021/12/07 13:22:45;;;;;;;13.45;5.30;;;5.60;99.90;;;;;;4963011;28;20050;-73
2021/12/07 13:25:15;;;;;;;12.77;4.53;;;5.60;99.90;;;;;;4966143;28;20582;-71
2021/12/07 13:28:18;;;;;;;18.88;4.85;;;5.60;99.90;;;;;;4956571;28;20536;-71
2021/12/07 13:30:49;;;;;;;14.43;4.75;;;5.60;99.90;;;;;;4963453;28;20729;-71
2021/12/07 13:33:52;;;;;;;15.45;5.30;;;5.60;99.90;;;;;;4977596;28;20088;-72
2021/12/07 13:36:42;;;;;;;13.02;5.43;;;5.50;99.90;;;;;;4942368;28;20058;-72
2021/12/07 13:39:14;;;;;;;12.35;4.57;;;5.50;99.90;;;;;;4962188;28;20047;-71
2021/12/07 13:41:58;;;;;;;20.52;5.00;;;5.50;99.90;;;;;;4964898;28;20054;-72
2021/12/07 13:44:25;;;;;;;14.02;4.72;;;5.50;99.90;;;;;;4965600;28;21046;-72
2021/12/07 13:46:54;;;;;;;15.75;4.93;;;5.50;99.90;;;;;;4979675;28;20073;-72
2021/12/07 13:49:20;;;;;;;13.55;4.20;;;5.50;99.90;;;;;;4982773;28;20049;-72
2021/12/07 13:51:46;;;;;;;13.88;4.75;;;5.40;99.90;;;;;;4982072;28;20046;-72
2021/12/07 13:54:20;;;;;;;15.35;5.30;;;5.40;99.90;;;;;;4985638;28;20042;-71
2021/12/07 13:56:48;;;;;;;17.40;6.25;;;5.40;99.90;;;;;;4977853;28;20054;-76
2021/12/07 13:59:17;;;;;;;14.63;4.93;;;5.40;99.90;;;;;;4960388;28;20057;-75
2021/12/07 14:01:51;;;;;;;13.45;5.78;;;5.30;99.90;;;;;;4983304;28;20562;-76
2021/12/07 14:04:17;;;;;;;18.33;5.50;;;5.30;99.90;;;;;;4984370;28;20062;-75
2021/12/07 14:06:48;;;;;;;14.15;6.10;;;5.30;99.90;;;;;;4978768;28;20105;-76
2021/12/07 14:09:15;;;;;;;16.77;5.78;;;5.30;99.90;;;;;;4963323;28;20108;-75
2021/12/07 14:11:41;;;;;;;15.77;5.35;;;5.20;99.90;;;;;;4963732;28;20054;-75
2021/12/07 14:14:10;;;;;;;15.95;5.75;;;5.20;99.90;;;;;;4980690;28;20560;-75
2021/12/07 14:16:36;;;;;;;18.85;5.10;;;5.20;99.90;;;;;;4979458;28;20057;-75
2021/12/07 14:19:02;;;;;;;18.48;6.38;;;5.10;99.90;;;;;;4980637;28;20047;-76
2021/12/07 14:21:29;;;;;;;16.17;6.60;;;5.10;99.90;;;;;;4977607;28;20490;-76
2021/12/07 14:24:04;;;;;;;12.30;5.53;;;5.00;99.90;;;;;;4982590;28;20049;-77
2021/12/07 14:26:36;;;;;;;14.13;5.30;;;5.00;99.90;;;;;;4962823;28;20061;-78
2021/12/07 14:29:06;;;;;;;18.38;6.22;;;5.20;99.90;;;;;;4982606;28;20078;-76
2021/12/07 14:31:34;;;;;;;13.60;6.28;;;4.90;99.90;;;;;;4978110;28;20080;-76